Time;durP1;ratioP1;P1;durP2;ratioP2;P2;SDS_P1;SDS_P2;PMS_P1;PMS_P2;Temp;Humidity;BMP_temperature;BMP_pressure;BME280_temperature;BME280_humidity;BME280_pressure;Samples;Min_cycle;Max_cycle;Signal;HPM_P1;HPM_P2
2022/06/12 00:02:00;;;;;;;;;;;18.40;92.10;;;;;;5067536;28;20162;-80
2022/06/12 00:04:29;;;;;;;;;;;18.40;92.00;;;;;;5069039;28;20520;-79
2022/06/12 00:06:56;;;;;;;;;;;18.50;91.90;;;;;;5064700;28;20287;-80
2022/06/12 00:09:23;;;;;;;;;;;18.50;91.80;;;;;;5059622;28;19928;-80
2022/06/12 00:11:50;;;;;;;;;;;18.50;91.70;;;;;;5067244;28;19928;-81
2022/06/12 00:14:19;;;;;;;;;;;18.60;91.70;;;;;;5067753;28;19925;-79
2022/06/12 00:16:46;;;;;;;;;;;18.50;91.50;;;;;;5055230;28;19924;-80
2022/06/12 00:19:14;;;;;;;;;;;18.60;91.40;;;;;;5062846;28;19928;-79
2022/06/12 00:21:44;;;;;;;;;;;18.60;91.30;;;;;;5066374;28;19924;-79
2022/06/12 00:24:12;;;;;;;;;;;18.60;91.50;;;;;;5061219;28;19925;-80
2022/06/12 00:26:40;;;;;;;;;;;18.60;91.50;;;;;;5064409;28;20401;-80
2022/06/12 00:29:10;;;;;;;;;;;18.60;91.40;;;;;;5065902;28;19931;-80
2022/06/12 00:31:38;;;;;;;;;;;18.60;91.30;;;;;;5065501;28;19971;-80
2022/06/12 00:34:05;;;;;;;;;;;18.50;91.50;;;;;;5065149;28;19952;-80
2022/06/12 00:36:33;;;;;;;;;;;18.50;91.30;;;;;;5066545;28;19943;-80
2022/06/12 00:39:02;;;;;;;;;;;18.60;91.30;;;;;;5061600;28;20409;-79
2022/06/12 00:41:29;;;;;;;;;;;18.50;91.30;;;;;;5062974;28;19932;-79
2022/06/12 00:43:56;;;;;;;;;;;18.40;91.40;;;;;;5069196;28;19979;-79
2022/06/12 00:46:37;;;;;;;;;;;18.30;91.70;;;;;;5072229;28;19947;-80
2022/06/12 00:49:07;;;;;;;;;;;18.30;91.50;;;;;;5066341;28;19924;-79
2022/06/12 00:51:34;;;;;;;;;;;18.30;91.80;;;;;;5061891;28;19985;-80
2022/06/12 00:54:01;;;;;;;;;;;;;;;;;;5064437;28;20441;-80
2022/06/12 00:56:34;;;;;;;;;;;18.00;92.10;;;;;;5062064;28;20651;-80
2022/06/12 00:59:03;;;;;;;;;;;18.10;92.20;;;;;;5064073;28;21605;-80
2022/06/12 01:01:31;;;;;;;;;;;18.20;91.80;;;;;;5061643;28;19933;-79
2022/06/12 01:06:43;;;;;;;;;;;18.30;91.50;;;;;;5065607;28;19921;-81
2022/06/12 01:09:12;;;;;;;;;;;18.10;91.80;;;;;;5056922;28;20394;-80
2022/06/12 01:11:44;;;;;;;;;;;18.00;92.10;;;;;;5067958;28;20410;-80
2022/06/12 01:14:16;;;;;;;;;;;18.00;92.00;;;;;;5079116;28;19925;-79
2022/06/12 01:16:46;;;;;;;;;;;18.00;92.00;;;;;;5060699;28;19947;-81
2022/06/12 01:19:18;;;;;;;;;;;18.00;92.10;;;;;;5060180;28;19947;-79
2022/06/12 01:22:03;;;;;;;;;;;18.00;92.00;;;;;;5059076;28;19933;-79
2022/06/12 01:24:58;;;;;;;;;;;18.00;91.80;;;;;;5057759;28;19928;-79
2022/06/12 01:27:44;;;;;;;;;;;18.00;91.70;;;;;;5060097;28;19933;-80
2022/06/12 01:30:16;;;;;;;;;;;17.90;92.10;;;;;;5084965;28;20477;-80
2022/06/12 01:32:47;;;;;;;;;;;17.90;91.90;;;;;;5060070;28;19932;-79
2022/06/12 01:35:18;;;;;;;;;;;17.90;92.10;;;;;;5062253;28;19924;-79
2022/06/12 01:37:49;;;;;;;;;;;17.80;92.10;;;;;;5057985;28;19936;-80
2022/06/12 01:40:22;;;;;;;;;;;17.70;92.30;;;;;;5060267;28;19999;-80
2022/06/12 01:42:51;;;;;;;;;;;17.70;92.60;;;;;;5064428;28;19924;-79
2022/06/12 01:45:28;;;;;;;;;;;17.50;92.70;;;;;;5064135;28;20348;-82
2022/06/12 01:47:59;;;;;;;;;;;17.60;92.70;;;;;;5088265;28;19930;-81
2022/06/12 01:50:31;;;;;;;;;;;17.60;92.30;;;;;;5055966;28;20212;-82
2022/06/12 01:53:01;;;;;;;;;;;17.60;92.60;;;;;;5061667;28;20057;-81
2022/06/12 01:55:32;;;;;;;;;;;17.40;92.90;;;;;;5060418;28;19928;-81
2022/06/12 01:58:01;;;;;;;;;;;17.40;92.70;;;;;;5061753;28;19924;-82
2022/06/12 02:00:31;;;;;;;;;;;17.40;92.50;;;;;;5057529;28;19924;-82
2022/06/12 02:03:00;;;;;;;;;;;17.40;92.40;;;;;;5061444;28;19940;-82
2022/06/12 02:05:32;;;;;;;;;;;17.40;93.20;;;;;;5064226;28;19924;-82
2022/06/12 02:08:00;;;;;;;;;;;17.20;93.20;;;;;;5064468;28;19928;-82
2022/06/12 02:10:29;;;;;;;;;;;17.20;93.10;;;;;;5058872;28;19932;-82
2022/06/12 02:13:13;;;;;;;;;;;17.30;92.30;;;;;;5060194;28;19925;-82
2022/06/12 02:15:49;;;;;;;;;;;17.30;92.40;;;;;;5077188;28;20355;-81
2022/06/12 02:18:22;;;;;;;;;;;17.30;92.10;;;;;;5057837;28;20059;-81
2022/06/12 02:20:51;;;;;;;;;;;17.30;92.10;;;;;;5065866;28;20326;-82
2022/06/12 02:23:22;;;;;;;;;;;17.30;92.80;;;;;;5064066;28;19947;-82
2022/06/12 02:25:52;;;;;;;;;;;17.10;93.20;;;;;;5061198;28;19971;-82
2022/06/12 02:28:21;;;;;;;;;;;17.00;93.10;;;;;;5061266;28;19967;-82
2022/06/12 02:30:50;;;;;;;;;;;17.00;92.70;;;;;;5057432;28;20307;-82
2022/06/12 02:33:19;;;;;;;;;;;17.00;92.50;;;;;;5062329;28;19924;-82
2022/06/12 02:35:48;;;;;;;;;;;17.00;92.60;;;;;;5061355;28;19924;-82
2022/06/12 02:38:19;;;;;;;;;;;17.00;92.30;;;;;;5061771;28;19925;-82
2022/06/12 02:40:48;;;;;;;;;;;17.00;92.40;;;;;;5063557;28;19924;-82
2022/06/12 02:43:17;;;;;;;;;;;17.00;92.20;;;;;;5064924;28;19932;-83
2022/06/12 02:45:46;;;;;;;;;;;17.00;92.10;;;;;;5061706;28;19924;-80
2022/06/12 02:48:15;;;;;;;;;;;17.00;92.00;;;;;;5063376;28;19969;-80
2022/06/12 02:50:45;;;;;;;;;;;17.00;92.10;;;;;;5059480;28;19924;-81
2022/06/12 02:53:19;;;;;;;;;;;17.00;91.90;;;;;;5059898;28;19928;-80
2022/06/12 02:55:54;;;;;;;;;;;17.00;92.10;;;;;;5063520;28;20298;-80
2022/06/12 02:58:27;;;;;;;;;;;16.90;92.20;;;;;;5060297;28;19979;-80
2022/06/12 03:00:57;;;;;;;;;;;16.90;92.20;;;;;;5060360;28;19982;-80
2022/06/12 03:03:27;;;;;;;;;;;16.90;92.10;;;;;;5065755;28;20405;-80
2022/06/12 03:05:57;;;;;;;;;;;16.90;92.40;;;;;;5067049;28;19924;-81
2022/06/12 03:08:28;;;;;;;;;;;16.80;92.20;;;;;;5085183;22;19935;-77
2022/06/12 03:10:57;;;;;;;;;;;16.80;92.00;;;;;;5120235;27;19928;-76
2022/06/12 03:13:25;;;;;;;;;;;16.80;92.30;;;;;;5120941;27;20480;-75
2022/06/12 03:15:56;;;;;;;;;;;16.70;92.40;;;;;;5128170;27;20324;-76
2022/06/12 03:18:25;;;;;;;;;;;16.70;92.20;;;;;;5124692;27;20426;-75
2022/06/12 03:21:00;;;;;;;;;;;16.70;92.30;;;;;;5123473;27;20169;-75
2022/06/12 03:23:32;;;;;;;;;;;16.70;92.30;;;;;;5119606;27;19950;-75
2022/06/12 03:26:00;;;;;;;;;;;16.60;92.30;;;;;;5105121;27;20297;-75
2022/06/12 03:28:31;;;;;;;;;;;16.60;92.10;;;;;;5120779;27;20353;-75
2022/06/12 03:31:02;;;;;;;;;;;16.60;92.30;;;;;;5121077;27;19956;-75
2022/06/12 03:33:35;;;;;;;;;;;16.60;92.00;;;;;;5126479;27;19946;-77
2022/06/12 03:36:06;;;;;;;;;;;16.60;92.10;;;;;;5121631;27;19927;-75
2022/06/12 03:38:39;;;;;;;;;;;16.60;92.50;;;;;;5122055;27;20373;-75
2022/06/12 03:41:12;;;;;;;;;;;16.50;92.90;;;;;;5122678;27;19940;-75
2022/06/12 03:43:42;;;;;;;;;;;16.50;92.80;;;;;;5120376;27;20022;-75
2022/06/12 03:46:16;;;;;;;;;;;16.50;93.40;;;;;;5125965;27;19923;-75
2022/06/12 03:48:48;;;;;;;;;;;16.30;93.50;;;;;;5123096;27;19931;-78
2022/06/12 03:51:24;;;;;;;;;;;16.20;94.40;;;;;;5118382;27;19932;-76
2022/06/12 03:53:54;;;;;;;;;;;16.20;93.50;;;;;;5122309;27;19950;-76
2022/06/12 03:59:12;;;;;;;;;;;16.20;93.80;;;;;;5120210;27;20073;-75
2022/06/12 04:01:41;;;;;;;;;;;16.20;93.30;;;;;;5117777;27;20393;-77
2022/06/12 04:04:09;;;;;;;;;;;16.20;93.10;;;;;;5124705;27;19931;-76
2022/06/12 04:06:38;;;;;;;;;;;16.20;93.60;;;;;;5126879;27;19927;-76
2022/06/12 04:09:06;;;;;;;;;;;16.10;94.40;;;;;;5119824;27;20294;-77
2022/06/12 04:11:37;;;;;;;;;;;16.10;93.30;;;;;;5107752;27;19923;-75
2022/06/12 04:14:06;;;;;;;;;;;16.10;93.40;;;;;;5110539;27;19973;-76
2022/06/12 04:16:35;;;;;;;;;;;16.10;93.10;;;;;;5122904;27;20007;-75
2022/06/12 04:19:02;;;;;;;;;;;16.10;93.50;;;;;;5100958;27;20061;-78
2022/06/12 04:21:33;;;;;;;;;;;16.00;94.20;;;;;;5120716;27;20442;-76
2022/06/12 04:24:06;;;;;;;;;;;15.90;94.00;;;;;;5103310;27;20305;-77
2022/06/12 04:26:35;;;;;;;;;;;15.90;94.00;;;;;;5104620;27;20343;-75
2022/06/12 04:29:03;;;;;;;;;;;15.90;93.30;;;;;;5117280;27;20377;-76
2022/06/12 04:31:31;;;;;;;;;;;15.90;93.30;;;;;;5118799;27;19923;-77
2022/06/12 04:34:08;;;;;;;;;;;16.00;93.10;;;;;;5118239;27;19988;-75
2022/06/12 04:36:35;;;;;;;;;;;16.00;93.10;;;;;;5116984;27;19924;-77
2022/06/12 04:39:03;;;;;;;;;;;16.00;93.10;;;;;;5119181;27;20009;-75
2022/06/12 04:41:32;;;;;;;;;;;16.00;92.80;;;;;;5120387;27;19931;-77
2022/06/12 04:43:59;;;;;;;;;;;16.00;92.80;;;;;;5117029;27;20300;-77
2022/06/12 04:46:26;;;;;;;;;;;16.00;93.30;;;;;;5119196;27;19962;-75
2022/06/12 04:48:55;;;;;;;;;;;16.00;93.30;;;;;;5123605;27;19936;-76
2022/06/12 04:51:22;;;;;;;;;;;16.00;93.50;;;;;;5118455;27;19975;-76
2022/06/12 04:53:49;;;;;;;;;;;16.00;93.70;;;;;;5124976;27;19954;-76
2022/06/12 04:56:21;;;;;;;;;;;16.00;93.80;;;;;;5118703;27;20343;-75
2022/06/12 04:58:49;;;;;;;;;;;16.00;93.90;;;;;;5097210;27;19971;-76
2022/06/12 05:01:16;;;;;;;;;;;16.00;93.90;;;;;;5122487;27;19924;-75
2022/06/12 05:03:53;;;;;;;;;;;16.00;94.00;;;;;;5117698;27;20454;-78
2022/06/12 05:06:20;;;;;;;;;;;16.00;94.10;;;;;;5115471;27;19923;-77
2022/06/12 05:08:48;;;;;;;;;;;16.00;94.10;;;;;;5121888;27;19931;-75
2022/06/12 05:11:15;;;;;;;;;;;15.90;94.20;;;;;;5119879;27;19938;-77
2022/06/12 05:13:44;;;;;;;;;;;16.00;94.40;;;;;;5117071;27;19927;-76
2022/06/12 05:16:19;;;;;;;;;;;16.00;94.40;;;;;;5115997;27;20358;-75
2022/06/12 05:18:46;;;;;;;;;;;16.00;94.40;;;;;;5121416;27;20608;-75
2022/06/12 05:21:13;;;;;;;;;;;16.00;94.50;;;;;;5119661;27;19946;-76
2022/06/12 05:23:40;;;;;;;;;;;16.10;94.60;;;;;;5118625;27;19923;-75
2022/06/12 05:26:09;;;;;;;;;;;16.10;94.80;;;;;;5125951;27;20057;-77
2022/06/12 05:28:36;;;;;;;;;;;16.10;94.80;;;;;;5115861;27;19923;-75
2022/06/12 05:31:06;;;;;;;;;;;16.10;94.80;;;;;;5103220;27;19924;-76
2022/06/12 05:33:33;;;;;;;;;;;16.20;94.80;;;;;;5119746;27;20393;-76
2022/06/12 05:36:00;;;;;;;;;;;16.20;94.80;;;;;;5101254;27;19932;-75
2022/06/12 05:38:27;;;;;;;;;;;16.20;94.80;;;;;;5115982;27;19932;-77
2022/06/12 05:40:54;;;;;;;;;;;16.20;94.90;;;;;;5116355;27;20400;-75
2022/06/12 05:43:22;;;;;;;;;;;16.30;94.90;;;;;;5102152;27;19923;-75
2022/06/12 05:45:48;;;;;;;;;;;16.30;95.00;;;;;;5096355;27;20450;-75
2022/06/12 05:48:21;;;;;;;;;;;16.30;95.00;;;;;;5116858;27;19976;-75
2022/06/12 05:50:50;;;;;;;;;;;16.40;95.10;;;;;;5101681;27;19962;-75
2022/06/12 05:53:18;;;;;;;;;;;16.40;95.10;;;;;;5097019;28;19934;-76
2022/06/12 05:55:45;;;;;;;;;;;16.40;95.20;;;;;;5117082;27;19966;-75
2022/06/12 05:58:13;;;;;;;;;;;16.40;95.20;;;;;;5118610;27;19924;-75
2022/06/12 06:00:40;;;;;;;;;;;16.40;95.20;;;;;;5086365;27;19924;-75
2022/06/12 06:03:15;;;;;;;;;;;16.50;95.20;;;;;;5119819;27;19960;-75
2022/06/12 06:05:44;;;;;;;;;;;16.50;95.40;;;;;;5124170;27;20014;-75
2022/06/12 06:08:11;;;;;;;;;;;16.40;95.50;;;;;;5119513;27;19930;-80
2022/06/12 06:10:40;;;;;;;;;;;16.50;95.80;;;;;;5118902;27;19931;-77
2022/06/12 06:13:07;;;;;;;;;;;16.50;96.00;;;;;;5116326;27;19932;-76
2022/06/12 06:15:36;;;;;;;;;;;16.50;95.70;;;;;;5118068;27;19923;-75
2022/06/12 06:18:04;;;;;;;;;;;16.50;96.20;;;;;;5117099;27;19936;-75
2022/06/12 06:20:32;;;;;;;;;;;16.50;96.50;;;;;;5115961;27;20046;-75
2022/06/12 06:23:02;;;;;;;;;;;16.60;96.00;;;;;;5116486;27;19958;-76
2022/06/12 06:25:31;;;;;;;;;;;16.60;95.90;;;;;;5096100;28;19930;-77
2022/06/12 06:27:59;;;;;;;;;;;16.60;95.70;;;;;;5116518;27;19935;-75
2022/06/12 06:30:28;;;;;;;;;;;16.70;96.20;;;;;;5117936;27;19930;-75
2022/06/12 06:32:55;;;;;;;;;;;16.70;96.20;;;;;;5121358;27;19928;-77
2022/06/12 06:35:23;;;;;;;;;;;16.80;97.20;;;;;;5120741;27;19923;-76
2022/06/12 06:37:51;;;;;;;;;;;16.80;96.60;;;;;;5117888;27;19931;-77
2022/06/12 06:40:21;;;;;;;;;;;16.80;96.40;;;;;;5116872;27;19928;-75
2022/06/12 06:42:48;;;;;;;;;;;16.90;97.20;;;;;;5116804;27;20034;-76
2022/06/12 06:48:01;;;;;;;;;;;16.90;97.50;;;;;;5098840;27;19955;-77
2022/06/12 06:50:28;;;;;;;;;;;17.00;97.50;;;;;;5123999;27;19928;-77
2022/06/12 06:52:55;;;;;;;;;;;17.00;97.90;;;;;;5117348;27;19923;-76
2022/06/12 06:55:24;;;;;;;;;;;17.10;97.90;;;;;;5121911;27;19931;-76
2022/06/12 06:57:51;;;;;;;;;;;17.10;97.60;;;;;;5119264;28;19923;-76
2022/06/12 07:00:19;;;;;;;;;;;17.20;97.90;;;;;;5108900;27;19984;-78
2022/06/12 07:02:46;;;;;;;;;;;17.20;97.80;;;;;;5118862;27;19927;-78
2022/06/12 07:05:13;;;;;;;;;;;17.30;97.90;;;;;;5111821;27;19924;-75
2022/06/12 07:07:40;;;;;;;;;;;17.40;97.70;;;;;;5100517;28;19923;-76
2022/06/12 07:10:09;;;;;;;;;;;17.50;97.90;;;;;;5120877;27;20353;-76
2022/06/12 07:12:37;;;;;;;;;;;17.60;97.80;;;;;;5120426;27;19930;-75
2022/06/12 07:15:05;;;;;;;;;;;17.60;97.60;;;;;;5116666;27;19924;-77
2022/06/12 07:17:31;;;;;;;;;;;17.60;97.70;;;;;;5120548;27;19938;-76
2022/06/12 07:19:58;;;;;;;;;;;17.70;97.90;;;;;;5119328;28;20401;-77
2022/06/12 07:22:25;;;;;;;;;;;17.80;98.00;;;;;;5116787;27;19931;-76
2022/06/12 07:24:52;;;;;;;;;;;17.90;98.10;;;;;;5123899;27;20472;-77
2022/06/12 07:27:19;;;;;;;;;;;17.90;98.00;;;;;;5115841;27;19936;-76
2022/06/12 07:29:48;;;;;;;;;;;17.90;98.10;;;;;;5118004;27;19970;-76
2022/06/12 07:32:15;;;;;;;;;;;18.00;98.70;;;;;;5118371;28;20027;-78
2022/06/12 07:34:42;;;;;;;;;;;18.10;98.70;;;;;;5118695;28;20925;-77
2022/06/12 07:37:09;;;;;;;;;;;18.20;98.20;;;;;;5117087;28;20368;-79
2022/06/12 07:39:36;;;;;;;;;;;18.30;98.40;;;;;;5121714;28;19936;-77
2022/06/12 07:42:03;;;;;;;;;;;18.40;98.20;;;;;;5122916;27;19938;-78
2022/06/12 07:44:32;;;;;;;;;;;18.50;98.40;;;;;;5102018;28;19927;-78
2022/06/12 07:47:01;;;;;;;;;;;18.80;96.80;;;;;;5128557;27;19923;-79
2022/06/12 07:49:29;;;;;;;;;;;19.00;96.50;;;;;;5125613;27;19942;-77
2022/06/12 07:51:57;;;;;;;;;;;19.10;96.10;;;;;;5125987;27;20007;-78
2022/06/12 07:54:24;;;;;;;;;;;19.00;96.40;;;;;;5121943;27;20055;-77
2022/06/12 07:56:51;;;;;;;;;;;18.90;96.40;;;;;;5124834;27;20282;-79
2022/06/12 07:59:18;;;;;;;;;;;18.90;95.90;;;;;;5122766;27;20401;-80
2022/06/12 08:01:45;;;;;;;;;;;18.90;96.00;;;;;;5118451;27;19931;-76
2022/06/12 08:04:14;;;;;;;;;;;18.80;96.20;;;;;;5106827;27;19928;-77
2022/06/12 08:06:41;;;;;;;;;;;18.90;96.30;;;;;;5122926;27;20541;-77
2022/06/12 08:09:10;;;;;;;;;;;19.00;96.20;;;;;;5122321;27;19924;-79
2022/06/12 08:11:37;;;;;;;;;;;19.10;96.20;;;;;;5120985;27;19932;-79
2022/06/12 08:14:05;;;;;;;;;;;19.10;95.50;;;;;;5127101;27;20330;-79
2022/06/12 08:16:34;;;;;;;;;;;19.50;95.10;;;;;;5119961;27;19931;-81
2022/06/12 08:19:01;;;;;;;;;;;19.50;94.30;;;;;;5119792;27;19946;-80
2022/06/12 08:21:34;;;;;;;;;;;19.50;94.50;;;;;;5123889;27;19964;-80
2022/06/12 08:24:02;;;;;;;;;;;;;;;;;;5124758;27;19959;-79
2022/06/12 08:26:30;;;;;;;;;;;19.80;94.90;;;;;;5122490;27;19950;-79
2022/06/12 08:29:02;;;;;;;;;;;19.90;95.20;;;;;;5113198;27;19923;-79
2022/06/12 08:31:38;;;;;;;;;;;20.10;94.90;;;;;;5120725;27;20534;-80
2022/06/12 08:34:06;;;;;;;;;;;;;;;;;;5125934;27;20026;-79
2022/06/12 08:36:49;;;;;;;;;;;20.60;94.90;;;;;;5129017;27;20000;-79
2022/06/12 08:39:18;;;;;;;;;;;20.90;94.20;;;;;;5106711;27;19928;-78
2022/06/12 08:41:47;;;;;;;;;;;21.00;94.00;;;;;;5119136;27;19923;-78
2022/06/12 08:44:17;;;;;;;;;;;21.10;94.00;;;;;;5116942;27;19932;-77
2022/06/12 08:46:49;;;;;;;;;;;21.00;94.20;;;;;;5114108;27;19924;-77
2022/06/12 08:49:17;;;;;;;;;;;20.90;94.10;;;;;;5110838;27;19924;-77
2022/06/12 08:51:51;;;;;;;;;;;21.00;94.30;;;;;;5116478;27;19934;-77
2022/06/12 08:54:21;;;;;;;;;;;21.00;93.90;;;;;;5097013;27;19931;-77
2022/06/12 08:56:52;;;;;;;;;;;21.00;92.60;;;;;;5095272;27;19924;-77
2022/06/12 08:59:22;;;;;;;;;;;21.00;92.70;;;;;;5111650;27;20410;-76
2022/06/12 09:01:49;;;;;;;;;;;21.10;92.40;;;;;;5121776;27;19935;-77
2022/06/12 09:04:19;;;;;;;;;;;21.10;91.80;;;;;;5117842;27;20384;-77
2022/06/12 09:06:48;;;;;;;;;;;21.10;90.70;;;;;;5116182;27;19971;-77
2022/06/12 09:09:24;;;;;;;;;;;21.10;91.80;;;;;;5117266;27;19973;-77
2022/06/12 09:11:52;;;;;;;;;;;21.10;91.10;;;;;;5115490;27;19931;-77
2022/06/12 09:14:31;;;;;;;;;;;21.10;91.00;;;;;;5214003;22;19924;-78
2022/06/12 09:17:02;;;;;;;;;;;21.10;89.80;;;;;;5099726;28;19931;-77
2022/06/12 09:19:32;;;;;;;;;;;21.10;90.70;;;;;;5074146;28;20079;-77
2022/06/12 09:22:09;;;;;;;;;;;21.20;90.40;;;;;;5076724;28;20267;-77
2022/06/12 09:24:43;;;;;;;;;;;21.20;88.50;;;;;;5088058;28;19924;-76
2022/06/12 09:27:15;;;;;;;;;;;21.40;89.70;;;;;;5093392;28;19952;-76
2022/06/12 09:29:47;;;;;;;;;;;21.30;90.40;;;;;;5096621;28;19934;-76
2022/06/12 09:32:18;;;;;;;;;;;21.30;90.10;;;;;;5091166;27;19923;-76
2022/06/12 09:34:49;;;;;;;;;;;21.30;90.30;;;;;;5095672;27;20447;-77
2022/06/12 09:40:14;;;;;;;;;;;21.50;90.90;;;;;;5099804;27;19920;-76
2022/06/12 09:42:54;;;;;;;;;;;21.60;90.00;;;;;;5091113;27;19932;-78
2022/06/12 09:45:25;;;;;;;;;;;21.60;88.40;;;;;;5095872;28;19946;-77
2022/06/12 09:47:57;;;;;;;;;;;21.50;89.10;;;;;;5098964;28;19930;-77
2022/06/12 09:50:29;;;;;;;;;;;21.40;90.60;;;;;;5081682;28;20014;-78
2022/06/12 09:53:01;;;;;;;;;;;21.20;91.00;;;;;;5074870;28;20457;-79
2022/06/12 09:55:34;;;;;;;;;;;21.10;91.30;;;;;;5081347;28;19923;-79
2022/06/12 09:58:07;;;;;;;;;;;21.00;91.60;;;;;;5101539;27;19932;-79
2022/06/12 10:00:37;;;;;;;;;;;21.00;91.80;;;;;;5096438;28;19923;-78
2022/06/12 10:03:06;;;;;;;;;;;21.20;91.40;;;;;;5099153;28;19924;-77
2022/06/12 10:05:38;;;;;;;;;;;21.30;91.30;;;;;;5096024;28;19927;-77
2022/06/12 10:08:08;;;;;;;;;;;21.50;91.30;;;;;;5092995;28;19939;-77
2022/06/12 10:10:40;;;;;;;;;;;21.80;91.20;;;;;;5093496;28;20892;-77
2022/06/12 10:13:08;;;;;;;;;;;21.80;90.70;;;;;;5090450;28;22272;-76
2022/06/12 10:15:37;;;;;;;;;;;22.00;90.50;;;;;;5097242;28;19924;-76
2022/06/12 10:18:06;;;;;;;;;;;22.00;90.10;;;;;;5092112;28;20018;-78
2022/06/12 10:20:35;;;;;;;;;;;22.30;90.00;;;;;;5091355;27;19932;-76
2022/06/12 10:23:02;;;;;;;;;;;22.40;89.70;;;;;;5083804;27;19997;-76
2022/06/12 10:25:32;;;;;;;;;;;22.50;89.30;;;;;;5086680;28;20366;-76
2022/06/12 10:28:01;;;;;;;;;;;22.60;89.40;;;;;;5092934;28;19932;-77
2022/06/12 10:30:32;;;;;;;;;;;22.70;89.10;;;;;;5099442;27;19977;-77
2022/06/12 10:32:59;;;;;;;;;;;23.00;85.60;;;;;;5100763;28;20015;-76
2022/06/12 10:35:27;;;;;;;;;;;23.10;84.90;;;;;;5096240;28;19990;-76
2022/06/12 10:38:04;;;;;;;;;;;23.10;86.40;;;;;;5075454;28;19940;-76
2022/06/12 10:40:31;;;;;;;;;;;23.10;86.20;;;;;;5098832;28;20107;-78
2022/06/12 10:43:02;;;;;;;;;;;23.30;89.10;;;;;;5094741;28;19935;-78
2022/06/12 10:45:33;;;;;;;;;;;23.30;86.20;;;;;;5073033;28;19930;-77
2022/06/12 10:48:02;;;;;;;;;;;23.50;86.60;;;;;;5097010;28;20294;-78
2022/06/12 10:50:31;;;;;;;;;;;23.70;85.90;;;;;;5093657;28;19994;-78
2022/06/12 10:52:59;;;;;;;;;;;23.80;86.30;;;;;;5099323;28;19931;-78
2022/06/12 10:55:41;;;;;;;;;;;23.90;83.10;;;;;;5095397;28;19928;-77
2022/06/12 10:58:20;;;;;;;;;;;23.90;84.40;;;;;;5092569;28;19968;-76
2022/06/12 11:00:48;;;;;;;;;;;23.80;84.30;;;;;;5079117;28;19932;-79
2022/06/12 11:03:20;;;;;;;;;;;23.60;84.00;;;;;;5080412;28;20323;-79
2022/06/12 11:05:56;;;;;;;;;;;23.40;85.70;;;;;;5103156;28;20403;-79
2022/06/12 11:08:41;;;;;;;;;;;23.30;85.70;;;;;;5098862;28;19969;-79
2022/06/12 11:11:16;;;;;;;;;;;23.30;84.60;;;;;;5082956;28;19930;-79
2022/06/12 11:13:52;;;;;;;;;;;23.30;86.20;;;;;;5089400;28;19928;-77
2022/06/12 11:16:25;;;;;;;;;;;23.40;84.20;;;;;;5081584;28;20392;-79
2022/06/12 11:18:57;;;;;;;;;;;23.40;83.10;;;;;;5093059;28;20125;-79
2022/06/12 11:21:28;;;;;;;;;;;23.30;83.20;;;;;;5098847;28;20184;-79
2022/06/12 11:24:04;;;;;;;;;;;23.30;84.90;;;;;;5100993;27;19931;-79
2022/06/12 11:26:40;;;;;;;;;;;23.20;86.30;;;;;;5079217;28;19928;-80
2022/06/12 11:29:13;;;;;;;;;;;23.20;85.20;;;;;;5077442;28;19923;-80
2022/06/12 11:31:47;;;;;;;;;;;23.30;84.70;;;;;;5097215;28;19932;-81
2022/06/12 11:34:23;;;;;;;;;;;23.30;85.10;;;;;;5099306;28;19945;-79
2022/06/12 11:36:54;;;;;;;;;;;23.30;86.50;;;;;;5080927;28;20522;-77
2022/06/12 11:39:27;;;;;;;;;;;23.40;85.00;;;;;;5094259;28;20323;-74
2022/06/12 11:42:11;;;;;;;;;;;23.40;83.20;;;;;;5098089;27;19924;-77
2022/06/12 11:44:45;;;;;;;;;;;23.50;82.30;;;;;;5099226;28;19931;-78
2022/06/12 11:47:18;;;;;;;;;;;23.50;83.00;;;;;;5098489;27;19924;-77
2022/06/12 11:49:49;;;;;;;;;;;23.60;84.00;;;;;;5085624;27;19943;-77
2022/06/12 11:52:25;;;;;;;;;;;23.50;85.60;;;;;;5104381;28;19993;-79
2022/06/12 11:55:09;;;;;;;;;;;23.50;85.10;;;;;;5091498;28;20024;-78
2022/06/12 11:57:48;;;;;;;;;;;23.40;85.30;;;;;;5094721;28;19932;-78
2022/06/12 12:00:18;;;;;;;;;;;23.40;86.10;;;;;;5084496;27;20297;-76
2022/06/12 12:02:57;;;;;;;;;;;23.50;83.50;;;;;;5092299;28;20012;-76
2022/06/12 12:05:33;;;;;;;;;;;23.50;85.10;;;;;;5085157;28;20306;-76
2022/06/12 12:08:05;;;;;;;;;;;23.40;87.30;;;;;;5098229;27;19923;-75
2022/06/12 12:10:39;;;;;;;;;;;23.40;88.50;;;;;;5095525;28;20024;-75
2022/06/12 12:13:10;;;;;;;;;;;23.30;88.90;;;;;;5102065;28;19932;-75
2022/06/12 12:15:43;;;;;;;;;;;23.30;89.30;;;;;;5095336;28;19932;-76
2022/06/12 12:18:14;;;;;;;;;;;23.30;90.00;;;;;;5092217;27;19932;-75
2022/06/12 12:20:42;;;;;;;;;;;23.30;90.10;;;;;;5098502;28;19927;-76
2022/06/12 12:23:11;;;;;;;;;;;23.30;90.00;;;;;;5083193;28;19969;-76
2022/06/12 12:25:41;;;;;;;;;;;23.30;90.00;;;;;;5083004;28;19930;-75
2022/06/12 12:28:15;;;;;;;;;;;23.30;90.00;;;;;;5100586;27;19924;-76
2022/06/12 12:30:45;;;;;;;;;;;23.30;90.10;;;;;;5099970;28;19931;-75
2022/06/12 12:33:14;;;;;;;;;;;23.40;90.00;;;;;;5098775;28;19931;-76
2022/06/12 12:41:20;;;;;;;;;;;23.50;90.10;;;;;;5053051;28;19925;-93
2022/06/12 12:43:48;;;;;;;;;;;23.50;90.30;;;;;;5072530;28;19929;-94
2022/06/12 12:46:17;;;;;;;;;;;23.50;90.20;;;;;;5067508;28;19959;-93
2022/06/12 12:48:45;;;;;;;;;;;23.60;90.10;;;;;;5052458;28;20004;-94
2022/06/12 12:51:23;;;;;;;;;;;23.50;89.70;;;;;;5070095;28;19964;-93
2022/06/12 12:53:52;;;;;;;;;;;23.60;89.70;;;;;;5096775;22;19924;-74
2022/06/12 12:56:28;;;;;;;;;;;23.60;90.00;;;;;;5044071;28;19925;-76
2022/06/12 12:58:57;;;;;;;;;;;23.70;90.10;;;;;;5039226;28;19956;-76
2022/06/12 13:01:27;;;;;;;;;;;23.70;90.10;;;;;;5037616;28;19925;-75
2022/06/12 13:03:56;;;;;;;;;;;23.80;90.30;;;;;;5038980;28;20310;-76
2022/06/12 13:06:39;;;;;;;;;;;23.80;90.30;;;;;;5039247;28;19990;-79
2022/06/12 13:09:18;;;;;;;;;;;23.80;90.40;;;;;;5043131;28;19954;-75
2022/06/12 13:11:57;;;;;;;;;;;23.80;90.40;;;;;;5047994;28;19932;-74
2022/06/12 13:14:38;;;;;;;;;;;23.90;90.40;;;;;;5038256;28;19951;-76
2022/06/12 13:17:16;;;;;;;;;;;23.90;90.30;;;;;;5030025;28;20022;-77
2022/06/12 13:19:52;;;;;;;;;;;24.00;90.40;;;;;;5036112;28;19983;-73
2022/06/12 13:22:24;;;;;;;;;;;24.00;90.50;;;;;;5034690;28;19933;-76
2022/06/12 13:24:52;;;;;;;;;;;24.00;90.40;;;;;;5033075;28;20172;-76
2022/06/12 13:27:22;;;;;;;;;;;24.10;90.10;;;;;;5073313;22;20858;-78
2022/06/12 13:29:50;;;;;;;;;;;24.60;85.60;;;;;;5107398;27;19934;-78
2022/06/12 13:32:25;;;;;;;;;;;24.80;82.70;;;;;;5121135;27;19935;-77
2022/06/12 13:35:01;;;;;;;;;;;25.00;82.70;;;;;;5113247;27;19928;-78
2022/06/12 13:37:29;;;;;;;;;;;25.10;78.90;;;;;;5115050;27;19928;-77
2022/06/12 13:39:56;;;;;;;;;;;25.10;78.20;;;;;;5099686;27;20470;-77
2022/06/12 13:42:24;;;;;;;;;;;25.30;80.40;;;;;;5110610;27;19962;-80
2022/06/12 13:44:52;;;;;;;;;;;25.60;80.50;;;;;;5127021;27;19955;-79
2022/06/12 13:47:25;;;;;;;;;;;25.60;77.90;;;;;;5137045;27;19945;-79
2022/06/12 13:49:53;;;;;;;;;;;25.60;79.40;;;;;;5137872;27;19915;-80
2022/06/12 13:52:26;;;;;;;;;;;25.40;81.80;;;;;;5126763;27;19939;-82
2022/06/12 13:54:53;;;;;;;;;;;25.30;82.70;;;;;;5129907;27;19927;-79
2022/06/12 13:57:23;;;;;;;;;;;25.20;84.10;;;;;;5139737;27;19931;-79
2022/06/12 13:59:50;;;;;;;;;;;25.20;85.00;;;;;;5110581;27;19927;-78
2022/06/12 14:02:20;;;;;;;;;;;25.20;85.50;;;;;;5116317;27;19912;-80
2022/06/12 14:04:57;;;;;;;;;;;25.30;85.70;;;;;;5134964;27;20004;-79
2022/06/12 14:07:25;;;;;;;;;;;25.30;84.80;;;;;;5133206;27;19933;-79
2022/06/12 14:09:55;;;;;;;;;;;25.30;85.20;;;;;;5136192;27;19924;-80
2022/06/12 14:12:22;;;;;;;;;;;25.30;85.10;;;;;;5117069;27;19927;-78
2022/06/12 14:14:51;;;;;;;;;;;25.40;84.90;;;;;;5133338;27;20218;-80
2022/06/12 14:17:20;;;;;;;;;;;25.40;84.00;;;;;;5139518;27;19923;-80
2022/06/12 14:19:57;;;;;;;;;;;25.50;84.50;;;;;;5130743;27;19944;-80
2022/06/12 14:22:24;;;;;;;;;;;25.50;85.00;;;;;;5123605;27;20010;-79
2022/06/12 14:24:58;;;;;;;;;;;25.50;85.70;;;;;;5130896;27;19928;-76
2022/06/12 14:27:32;;;;;;;;;;;25.50;86.00;;;;;;5112054;27;19934;-78
2022/06/12 14:29:59;;;;;;;;;;;25.60;86.10;;;;;;5115699;27;19943;-78
2022/06/12 14:32:29;;;;;;;;;;;25.60;86.30;;;;;;5103555;27;19923;-79
2022/06/12 14:35:03;;;;;;;;;;;25.60;86.20;;;;;;5122098;27;19987;-77
2022/06/12 14:37:35;;;;;;;;;;;25.60;86.80;;;;;;5117007;27;19931;-76
2022/06/12 14:40:15;;;;;;;;;;;25.60;87.10;;;;;;5124896;27;19924;-79
2022/06/12 14:42:41;;;;;;;;;;;25.70;87.20;;;;;;5128572;27;19934;-81
2022/06/12 14:45:11;;;;;;;;;;;25.70;87.50;;;;;;5119064;27;19992;-81
2022/06/12 14:47:38;;;;;;;;;;;25.80;87.10;;;;;;5117863;27;19954;-83
2022/06/12 14:50:11;;;;;;;;;;;25.80;86.10;;;;;;5115307;27;19927;-83
2022/06/12 14:52:37;;;;;;;;;;;25.80;85.40;;;;;;5111295;27;19927;-83
2022/06/12 14:55:05;;;;;;;;;;;25.80;85.10;;;;;;5115268;27;19923;-84